High wind

Not for real navigation. The accuracy of this data is not assured See disclaimer for more information



ICAO NAME COUNTRY WIND Kt GUST Kt VIS m TEMP/DEW C BARO METAR
KMWN Mount Washington NH United States 70 87 1600 8/8 29.92 KMWN 211850Z 26070G87KT 1/16SM FG VV001 08/08 RMK PK WND 26090/44
LIVC Monte Cimone Italy 46 0 9999 -9/-10 29.44 LIVC 211755Z 01046KT 0000 -SN FZFG VV/// M09/M10 Q0997 RMK MON INVIS VAL INVIS VIS MIN 0000
SFAL Stanley Airport Falkland Islands, Islas Malvin 35 45 9999 13/11 29.71 SFAL 211850Z 36035G45KT 9999 OVC006 13/11 Q1006
PADK Adak Island, Adak Airport AK United States 35 44 14400 4/1 30.03 PADK 211856Z AUTO 24035G44KT 9SM BKN017 OVC023 04/01 A3003 RMK AO2 PK WND 23045/1805 RAE19 SLP169 P0
LDRI Rijeka / Omisalj Croatia 35 53 9999 5/-4 29.68 LDRI 211830Z 04035G53KT 9999 FEW040 SCT047 05/M04 Q1005

Show more